createdAt,value
2017-11-19T00:00:52.177Z,94.25
2017-11-19T00:03:27.597Z,94.33
2017-11-19T00:06:01.960Z,94.19
2017-11-19T00:08:36.665Z,94.19
2017-11-19T00:11:11.577Z,94.13
2017-11-19T00:13:46.457Z,94.00
2017-11-19T00:16:20.929Z,93.84
2017-11-19T00:18:56.013Z,93.78
2017-11-19T00:21:31.133Z,93.57
2017-11-19T00:24:05.841Z,93.49
2017-11-19T00:26:40.793Z,93.58
2017-11-19T00:29:15.093Z,93.41
2017-11-19T00:31:49.647Z,93.31
2017-11-19T00:34:24.804Z,93.22
2017-11-19T00:36:59.757Z,93.25
2017-11-19T00:39:34.108Z,93.25
2017-11-19T00:42:09.241Z,93.19
2017-11-19T00:44:44.021Z,93.37
2017-11-19T00:47:18.861Z,93.37
2017-11-19T00:49:53.544Z,93.25
2017-11-19T00:52:28.325Z,93.12
2017-11-19T00:55:03.137Z,93.11
2017-11-19T00:57:37.961Z,93.05
2017-11-19T01:00:12.714Z,92.94
2017-11-19T01:02:47.795Z,92.92
2017-11-19T01:05:23.132Z,92.90
2017-11-19T01:07:57.895Z,92.84
2017-11-19T01:10:32.829Z,92.83
2017-11-19T01:13:07.909Z,92.80
2017-11-19T01:15:42.609Z,92.75
2017-11-19T01:18:17.743Z,92.89
2017-11-19T01:20:52.413Z,92.95
2017-11-19T01:23:27.090Z,92.96
2017-11-19T01:26:01.969Z,92.78
2017-11-19T01:28:36.818Z,92.78
2017-11-19T01:31:11.378Z,92.97
2017-11-19T01:33:45.969Z,92.82
2017-11-19T01:36:20.502Z,92.83
2017-11-19T01:38:55.183Z,92.77
2017-11-19T01:41:30.319Z,92.68
2017-11-19T01:44:04.785Z,92.82
2017-11-19T01:46:39.697Z,92.84
2017-11-19T01:49:14.382Z,92.99
2017-11-19T01:51:49.076Z,92.90
2017-11-19T01:54:23.493Z,92.96
2017-11-19T01:56:58.461Z,92.90
2017-11-19T01:59:33.465Z,92.91
2017-11-19T02:02:08.337Z,92.98
2017-11-19T02:04:43.861Z,93.02
2017-11-19T02:07:19.193Z,92.91
2017-11-19T02:09:53.929Z,92.85
2017-11-19T02:12:28.312Z,92.90
2017-11-19T02:15:03.428Z,92.99
2017-11-19T02:17:38.114Z,93.16
2017-11-19T02:20:13.904Z,93.38
2017-11-19T02:22:48.252Z,93.62
2017-11-19T02:25:23.161Z,93.52
2017-11-19T02:27:57.893Z,93.34
2017-11-19T02:30:32.762Z,93.33
2017-11-19T02:33:07.457Z,93.16
2017-11-19T02:35:42.173Z,93.20
2017-11-19T02:38:17.319Z,93.15
2017-11-19T02:40:52.063Z,93.09
2017-11-19T02:43:26.849Z,93.12
2017-11-19T02:46:01.667Z,93.07
2017-11-19T02:48:36.497Z,92.80
2017-11-19T02:51:11.340Z,92.89
2017-11-19T02:53:46.109Z,92.78
2017-11-19T02:56:20.821Z,92.55
2017-11-19T02:58:55.427Z,92.27
2017-11-19T03:01:31.459Z,92.16
2017-11-19T03:04:05.901Z,92.21
2017-11-19T03:06:41.789Z,91.86
2017-11-19T03:09:16.375Z,91.72
2017-11-19T03:11:51.346Z,91.68
2017-11-19T03:14:26.387Z,91.35
2017-11-19T03:17:01.129Z,91.28
2017-11-19T03:19:35.905Z,90.96
2017-11-19T03:22:10.862Z,90.66
2017-11-19T03:24:45.286Z,90.56
2017-11-19T03:27:20.212Z,90.40
2017-11-19T03:29:54.894Z,90.34
2017-11-19T03:32:29.797Z,90.17
2017-11-19T03:35:04.897Z,90.12
2017-11-19T03:37:40.127Z,90.19
2017-11-19T03:40:15.133Z,90.09
2017-11-19T03:42:49.820Z,89.88
2017-11-19T03:45:24.857Z,89.97
2017-11-19T03:47:59.604Z,89.92
2017-11-19T03:50:33.997Z,89.96
2017-11-19T03:53:09.214Z,90.01
2017-11-19T03:55:43.984Z,90.00
2017-11-19T03:58:18.917Z,90.05
2017-11-19T04:00:53.869Z,90.40
2017-11-19T04:03:28.773Z,90.63
2017-11-19T04:06:03.693Z,90.69
2017-11-19T04:08:38.462Z,90.84
2017-11-19T04:11:13.403Z,91.02
2017-11-19T04:13:48.209Z,91.18
2017-11-19T04:16:23.157Z,91.12
2017-11-19T04:18:57.845Z,91.04
2017-11-19T04:21:32.565Z,91.11
2017-11-19T04:24:07.325Z,91.16
2017-11-19T04:26:41.789Z,91.17
2017-11-19T04:29:16.678Z,91.29
2017-11-19T04:31:51.073Z,91.57
2017-11-19T04:34:26.005Z,91.74
2017-11-19T04:37:00.737Z,91.84
2017-11-19T04:39:35.463Z,92.11
2017-11-19T04:42:10.193Z,91.98
2017-11-19T04:44:44.925Z,92.30
2017-11-19T04:47:19.693Z,92.25
2017-11-19T04:49:54.305Z,92.25
2017-11-19T04:52:29.000Z,92.15
2017-11-19T04:55:03.761Z,91.86
2017-11-19T04:57:38.153Z,91.71
2017-11-19T05:00:13.101Z,91.76
2017-11-19T05:02:47.817Z,91.56
2017-11-19T05:05:22.569Z,91.59
2017-11-19T05:07:57.170Z,91.88
2017-11-19T05:10:32.294Z,91.98
2017-11-19T05:13:06.880Z,92.02
2017-11-19T05:15:41.594Z,91.94
2017-11-19T05:18:16.625Z,92.11
2017-11-19T05:20:51.469Z,92.44
2017-11-19T05:23:26.395Z,92.42
2017-11-19T05:26:01.322Z,92.46
2017-11-19T05:28:36.268Z,92.60
2017-11-19T05:31:11.156Z,92.66
2017-11-19T05:33:45.929Z,92.68
2017-11-19T05:36:20.785Z,92.56
2017-11-19T05:38:55.125Z,92.75
2017-11-19T05:41:30.075Z,92.88
2017-11-19T05:44:04.699Z,93.03
2017-11-19T05:46:39.538Z,93.29
2017-11-19T05:49:14.470Z,93.30
2017-11-19T05:51:49.314Z,93.50
2017-11-19T05:54:24.157Z,93.73
2017-11-19T05:56:58.857Z,93.80
2017-11-19T05:59:33.769Z,93.71
2017-11-19T06:02:08.564Z,93.77
2017-11-19T06:04:43.393Z,93.93
2017-11-19T06:07:17.973Z,93.92
2017-11-19T06:09:52.657Z,93.83
2017-11-19T06:12:27.259Z,93.72
2017-11-19T06:15:02.078Z,93.65
2017-11-19T06:17:36.886Z,93.72
2017-11-19T06:20:11.732Z,93.73
2017-11-19T06:22:46.602Z,93.50
2017-11-19T06:25:21.448Z,93.22
2017-11-19T06:27:56.249Z,92.99
2017-11-19T06:30:30.617Z,92.89
2017-11-19T06:33:05.585Z,92.80
2017-11-19T06:35:40.529Z,92.87
2017-11-19T06:38:15.337Z,93.05
2017-11-19T06:40:51.213Z,93.19
2017-11-19T06:43:25.916Z,93.38
2017-11-19T06:46:00.333Z,93.56
2017-11-19T06:48:34.941Z,93.58
2017-11-19T06:51:09.522Z,93.72
2017-11-19T06:53:44.457Z,93.72
2017-11-19T06:56:19.181Z,93.87
2017-11-19T06:58:54.013Z,93.85
2017-11-19T07:01:28.857Z,93.73
2017-11-19T07:04:03.779Z,93.68
2017-11-19T07:06:38.390Z,93.73
2017-11-19T07:09:13.170Z,93.79
2017-11-19T07:11:48.066Z,93.70
2017-11-19T07:14:22.829Z,93.76
2017-11-19T07:16:57.749Z,93.69
2017-11-19T07:19:32.451Z,93.30
2017-11-19T07:22:06.881Z,93.28
2017-11-19T07:24:41.729Z,93.29
2017-11-19T07:27:16.222Z,93.35
2017-11-19T07:29:51.029Z,92.99
2017-11-19T07:32:25.418Z,92.73
2017-11-19T07:35:00.414Z,92.39
2017-11-19T07:37:34.988Z,92.38
2017-11-19T07:40:09.846Z,92.00
2017-11-19T07:42:44.789Z,91.75
2017-11-19T07:45:19.420Z,91.71
2017-11-19T07:47:54.241Z,91.43
2017-11-19T07:50:28.758Z,91.30
2017-11-19T07:53:03.257Z,91.28
2017-11-19T07:55:38.441Z,91.03
2017-11-19T07:58:13.864Z,91.09
2017-11-19T08:00:47.927Z,91.14
2017-11-19T08:03:22.693Z,90.94
2017-11-19T08:05:57.049Z,90.92
2017-11-19T08:08:32.209Z,90.98
2017-11-19T08:11:06.932Z,91.17
2017-11-19T08:13:41.761Z,91.28
2017-11-19T08:16:16.608Z,91.22
2017-11-19T08:18:51.530Z,91.10
2017-11-19T08:21:26.738Z,91.05
2017-11-19T08:24:01.282Z,90.83
2017-11-19T08:26:36.273Z,90.90
2017-11-19T08:29:11.085Z,90.88
2017-11-19T08:31:45.981Z,90.70
2017-11-19T08:34:20.721Z,90.42
2017-11-19T08:36:55.433Z,90.34
2017-11-19T08:39:30.246Z,90.26
2017-11-19T08:42:04.585Z,90.17
2017-11-19T08:44:39.601Z,89.66
2017-11-19T08:47:14.473Z,89.51
2017-11-19T08:49:49.164Z,89.34
2017-11-19T08:52:23.905Z,89.63
2017-11-19T08:54:58.793Z,89.85
2017-11-19T08:57:33.696Z,90.05
2017-11-19T09:00:08.337Z,90.12
2017-11-19T09:02:43.522Z,89.91
2017-11-19T09:05:18.705Z,90.23
2017-11-19T09:07:53.613Z,90.05
2017-11-19T09:10:28.535Z,90.62
2017-11-19T09:13:03.257Z,91.01
2017-11-19T09:15:38.229Z,91.28
2017-11-19T09:18:13.345Z,91.68
2017-11-19T09:20:48.249Z,91.67
2017-11-19T09:23:23.272Z,91.66
2017-11-19T09:25:58.133Z,91.37
2017-11-19T09:28:32.902Z,91.41
2017-11-19T09:31:07.781Z,90.74
2017-11-19T09:33:42.629Z,90.12
2017-11-19T09:36:17.370Z,89.71
2017-11-19T09:38:52.569Z,89.73
2017-11-19T09:41:27.461Z,91.05
2017-11-19T09:44:02.369Z,92.24
2017-11-19T09:46:37.486Z,92.65
2017-11-19T09:49:12.853Z,92.76
2017-11-19T09:51:47.705Z,92.85
2017-11-19T09:54:22.638Z,92.78
2017-11-19T09:56:57.689Z,92.78
2017-11-19T09:59:32.496Z,92.68
2017-11-19T10:02:07.300Z,92.10
2017-11-19T10:04:41.993Z,91.40
2017-11-19T10:07:16.977Z,90.92
2017-11-19T10:09:51.706Z,90.38
2017-11-19T10:12:26.514Z,90.54
2017-11-19T10:15:01.285Z,90.67
2017-11-19T10:17:36.301Z,90.68
2017-11-19T10:20:11.045Z,90.77
2017-11-19T10:22:45.970Z,90.79
2017-11-19T10:25:21.030Z,91.04
2017-11-19T10:27:56.013Z,90.37
2017-11-19T10:30:30.881Z,90.60
2017-11-19T10:33:05.790Z,90.73
2017-11-19T10:35:40.932Z,90.82
2017-11-19T10:38:15.653Z,91.12
2017-11-19T10:40:50.623Z,91.25
2017-11-19T10:43:25.549Z,91.32
2017-11-19T10:46:00.750Z,90.40
2017-11-19T10:48:35.354Z,90.47
2017-11-19T10:51:10.056Z,90.15
2017-11-19T10:53:45.061Z,88.99
2017-11-19T10:56:19.898Z,88.57
2017-11-19T10:58:54.922Z,87.96
2017-11-19T11:01:29.589Z,87.39
2017-11-19T11:04:04.379Z,85.66
2017-11-19T11:06:39.244Z,84.39
2017-11-19T11:09:14.475Z,84.68
2017-11-19T11:11:50.204Z,84.51
2017-11-19T11:14:25.434Z,84.22
2017-11-19T11:17:00.385Z,83.57
2017-11-19T11:19:35.105Z,83.01
2017-11-19T11:22:09.790Z,83.20
2017-11-19T11:24:44.209Z,83.47
2017-11-19T11:27:19.328Z,82.81
2017-11-19T11:29:54.129Z,82.44
2017-11-19T11:32:28.945Z,82.79
2017-11-19T11:35:03.716Z,83.02
2017-11-19T11:37:38.406Z,82.88
2017-11-19T11:40:12.841Z,82.12
2017-11-19T11:42:47.967Z,81.24
2017-11-19T11:45:23.016Z,79.41
2017-11-19T11:47:57.774Z,79.61
2017-11-19T11:50:32.796Z,78.31
2017-11-19T11:53:07.805Z,78.66
2017-11-19T11:55:42.574Z,78.43
2017-11-19T11:58:17.196Z,77.08
2017-11-19T12:00:52.685Z,75.88
2017-11-19T12:03:27.436Z,76.54
2017-11-19T12:06:02.421Z,76.93
2017-11-19T12:08:37.525Z,76.63
2017-11-19T12:11:12.446Z,77.06
2017-11-19T12:13:47.381Z,76.78
2017-11-19T12:16:22.249Z,76.37
2017-11-19T12:18:57.064Z,75.31
2017-11-19T12:21:32.285Z,75.42
2017-11-19T12:24:07.314Z,74.51
2017-11-19T12:26:42.309Z,74.58
2017-11-19T12:29:16.837Z,75.68
2017-11-19T12:31:51.685Z,76.41
2017-11-19T12:34:26.766Z,78.37
2017-11-19T12:37:01.700Z,78.40
2017-11-19T12:39:36.733Z,79.18
2017-11-19T12:42:11.775Z,78.91
2017-11-19T12:44:46.466Z,79.49
2017-11-19T12:47:21.241Z,79.68
2017-11-19T12:49:56.201Z,80.32
2017-11-19T12:52:30.898Z,80.59
2017-11-19T12:55:05.885Z,81.71
2017-11-19T12:57:40.725Z,82.42
2017-11-19T13:00:15.149Z,82.53
2017-11-19T13:02:50.529Z,82.81
2017-11-19T13:05:25.421Z,83.25
2017-11-19T13:08:00.676Z,83.65
2017-11-19T13:10:35.029Z,82.81
2017-11-19T13:13:10.343Z,83.24
2017-11-19T13:15:45.254Z,83.63
2017-11-19T13:18:19.917Z,83.90
2017-11-19T13:20:54.861Z,82.99
2017-11-19T13:23:29.953Z,82.33
2017-11-19T13:26:04.790Z,81.60
2017-11-19T13:28:39.969Z,81.01
2017-11-19T13:31:14.877Z,81.06
2017-11-19T13:33:50.221Z,81.06
2017-11-19T13:36:25.258Z,80.61
2017-11-19T13:39:00.238Z,79.75
2017-11-19T13:41:35.422Z,80.50
2017-11-19T13:44:09.534Z,80.51
2017-11-19T13:46:44.694Z,80.14
2017-11-19T13:49:19.613Z,80.11
2017-11-19T13:51:54.328Z,79.84
2017-11-19T13:54:29.276Z,80.44
2017-11-19T13:57:04.029Z,80.49
2017-11-19T13:59:39.035Z,80.43
2017-11-19T14:02:14.094Z,80.53
2017-11-19T14:04:48.814Z,80.49
2017-11-19T14:07:23.845Z,80.62
2017-11-19T14:09:58.848Z,80.24
2017-11-19T14:12:33.624Z,79.43
2017-11-19T14:15:08.855Z,79.06
2017-11-19T14:17:44.208Z,79.51
2017-11-19T14:20:19.133Z,78.81
2017-11-19T14:22:54.381Z,78.75
2017-11-19T14:25:29.773Z,78.84
2017-11-19T14:28:04.850Z,78.59
2017-11-19T14:30:39.736Z,78.69
2017-11-19T14:33:14.497Z,78.30
2017-11-19T14:35:49.369Z,78.29
2017-11-19T14:38:24.185Z,78.46
2017-11-19T14:40:58.936Z,78.14
2017-11-19T14:43:33.643Z,77.73
2017-11-19T14:46:08.337Z,77.55
2017-11-19T14:48:43.327Z,77.54
2017-11-19T14:51:18.137Z,78.09
2017-11-19T14:53:53.073Z,77.35
2017-11-19T14:56:28.274Z,77.27
2017-11-19T14:59:02.954Z,77.36
2017-11-19T15:01:37.849Z,77.28
2017-11-19T15:04:12.820Z,78.26
2017-11-19T15:06:47.606Z,77.92
2017-11-19T15:09:22.745Z,78.12
2017-11-19T15:11:57.505Z,78.52
2017-11-19T15:14:32.869Z,79.50
2017-11-19T15:17:08.192Z,80.39
2017-11-19T15:19:43.092Z,81.53
2017-11-19T15:22:17.851Z,80.73
2017-11-19T15:24:52.627Z,80.48
2017-11-19T15:27:27.513Z,80.92
2017-11-19T15:30:02.413Z,81.63
2017-11-19T15:32:37.381Z,82.28
2017-11-19T15:35:12.289Z,83.28
2017-11-19T15:37:47.329Z,82.93
2017-11-19T15:40:22.393Z,83.98
2017-11-19T15:42:57.305Z,83.44
2017-11-19T15:45:32.854Z,83.43
2017-11-19T15:48:08.085Z,83.32
2017-11-19T15:50:43.153Z,83.27
2017-11-19T15:53:18.065Z,83.47
2017-11-19T15:55:52.889Z,83.92
2017-11-19T15:58:27.848Z,83.66
2017-11-19T16:01:02.664Z,83.80
2017-11-19T16:03:37.498Z,83.84
2017-11-19T16:06:12.323Z,83.73
2017-11-19T16:08:48.760Z,83.61
2017-11-19T16:11:23.400Z,83.73
2017-11-19T16:13:58.356Z,83.39
2017-11-19T16:16:33.196Z,83.13
2017-11-19T16:19:07.994Z,83.08
2017-11-19T16:21:43.145Z,82.68
2017-11-19T16:24:17.872Z,82.84
2017-11-19T16:26:52.733Z,83.61
2017-11-19T16:29:27.321Z,83.22
2017-11-19T16:32:02.485Z,83.44
2017-11-19T16:34:37.637Z,83.11
2017-11-19T16:37:12.818Z,83.00
2017-11-19T16:39:47.856Z,83.47
2017-11-19T16:42:22.672Z,84.54
2017-11-19T16:44:57.501Z,85.32
2017-11-19T16:47:32.381Z,85.28
2017-11-19T16:50:07.110Z,86.08
2017-11-19T16:52:42.264Z,85.80
2017-11-19T16:55:17.061Z,85.64
2017-11-19T16:57:51.917Z,85.18
2017-11-19T17:00:27.068Z,84.84
2017-11-19T17:03:01.897Z,84.90
2017-11-19T17:05:36.853Z,84.13
2017-11-19T17:08:12.272Z,83.96
2017-11-19T17:10:47.316Z,84.33
2017-11-19T17:13:22.229Z,84.37
2017-11-19T17:15:57.264Z,84.57
2017-11-19T17:18:32.290Z,84.99
2017-11-19T17:21:07.259Z,86.14
2017-11-19T17:23:41.959Z,86.89
2017-11-19T17:26:16.869Z,86.86
2017-11-19T17:28:51.826Z,87.15
2017-11-19T17:31:26.681Z,87.33
2017-11-19T17:34:01.466Z,87.63
2017-11-19T17:36:36.304Z,87.88
2017-11-19T17:39:11.367Z,87.93
2017-11-19T17:41:46.407Z,88.03
2017-11-19T17:44:21.610Z,87.79
2017-11-19T17:46:56.258Z,87.90
2017-11-19T17:49:31.208Z,88.03
2017-11-19T17:52:06.232Z,88.30
2017-11-19T17:54:40.857Z,88.35
2017-11-19T17:57:16.242Z,88.40
2017-11-19T17:59:51.043Z,88.44
2017-11-19T18:02:26.249Z,89.25
2017-11-19T18:05:01.081Z,89.02
2017-11-19T18:07:37.957Z,88.91
2017-11-19T18:10:12.805Z,89.17
2017-11-19T18:12:47.862Z,89.60
2017-11-19T18:15:22.800Z,90.14
2017-11-19T18:17:57.518Z,90.43
2017-11-19T18:20:32.393Z,90.12
2017-11-19T18:23:07.334Z,90.38
2017-11-19T18:25:41.803Z,90.50
2017-11-19T18:28:17.041Z,90.39
2017-11-19T18:30:51.974Z,89.74
2017-11-19T18:33:39.325Z,89.52
2017-11-19T18:36:14.623Z,89.86
2017-11-19T18:38:52.342Z,89.67
2017-11-19T18:41:27.461Z,89.93
2017-11-19T18:44:02.405Z,90.09
2017-11-19T18:46:38.255Z,89.87
2017-11-19T18:49:13.320Z,89.43
2017-11-19T18:51:47.989Z,90.35
2017-11-19T18:54:23.669Z,90.71
2017-11-19T18:56:58.689Z,90.02
2017-11-19T18:59:33.378Z,90.09
2017-11-19T19:02:08.769Z,90.36
2017-11-19T19:04:43.500Z,89.95
2017-11-19T19:07:18.332Z,90.73
2017-11-19T19:09:53.276Z,89.58
2017-11-19T19:12:28.610Z,89.54
2017-11-19T19:15:03.252Z,89.40
2017-11-19T19:17:38.377Z,89.33
2017-11-19T19:20:17.754Z,89.27
2017-11-19T19:22:53.120Z,89.01
2017-11-19T19:25:28.522Z,88.71
2017-11-19T19:28:04.542Z,88.80
2017-11-19T19:30:39.480Z,88.72
2017-11-19T19:33:14.657Z,88.68
2017-11-19T19:35:49.545Z,88.74
2017-11-19T19:38:24.324Z,89.01
2017-11-19T19:40:59.225Z,89.09
2017-11-19T19:43:34.064Z,88.99
2017-11-19T19:46:08.805Z,89.05
2017-11-19T19:48:43.736Z,88.17
2017-11-19T19:51:18.437Z,88.39
2017-11-19T19:53:53.245Z,88.57
2017-11-19T19:56:28.034Z,88.40
2017-11-19T19:59:03.158Z,88.60
2017-11-19T20:01:38.002Z,88.71
2017-11-19T20:04:13.033Z,88.72
2017-11-19T20:06:47.986Z,89.18
2017-11-19T20:09:22.720Z,89.64
2017-11-19T20:11:57.621Z,88.69
2017-11-19T20:14:32.473Z,88.92
2017-11-19T20:17:07.401Z,89.06
2017-11-19T20:19:42.301Z,89.06
2017-11-19T20:22:17.371Z,88.18
2017-11-19T20:24:51.637Z,88.01
2017-11-19T20:27:26.965Z,88.71
2017-11-19T20:30:03.205Z,88.19
2017-11-19T20:32:38.037Z,87.85
2017-11-19T20:35:13.045Z,88.12
2017-11-19T20:37:47.969Z,88.43
2017-11-19T20:40:23.101Z,88.65
2017-11-19T20:42:57.901Z,88.58
2017-11-19T20:45:32.980Z,88.59
2017-11-19T20:48:07.806Z,88.33
2017-11-19T20:50:42.377Z,88.48
2017-11-19T20:53:17.380Z,88.93
2017-11-19T20:55:52.295Z,89.21
2017-11-19T20:58:26.972Z,89.30
2017-11-19T21:01:02.488Z,89.30
2017-11-19T21:03:37.416Z,88.96
2017-11-19T21:06:12.241Z,88.89
2017-11-19T21:08:47.727Z,88.71
2017-11-19T21:11:22.800Z,88.48
2017-11-19T21:13:57.655Z,88.46
2017-11-19T21:16:32.604Z,88.36
2017-11-19T21:19:07.520Z,88.36
2017-11-19T21:21:42.564Z,88.20
2017-11-19T21:24:17.398Z,88.22
2017-11-19T21:26:52.112Z,88.05
2017-11-19T21:29:27.278Z,87.96
2017-11-19T21:32:02.100Z,87.97
2017-11-19T21:34:37.025Z,88.13
2017-11-19T21:37:11.876Z,88.12
2017-11-19T21:39:46.585Z,88.40
2017-11-19T21:42:21.864Z,88.33
2017-11-19T21:44:56.848Z,88.30
2017-11-19T21:47:31.881Z,88.23
2017-11-19T21:50:06.774Z,87.67
2017-11-19T21:52:41.641Z,87.63
2017-11-19T21:55:16.562Z,87.29
2017-11-19T21:57:50.998Z,87.28
2017-11-19T22:00:26.184Z,87.14
2017-11-19T22:03:01.009Z,86.92
2017-11-19T22:05:35.929Z,86.84
2017-11-19T22:08:10.845Z,86.94
2017-11-19T22:10:45.217Z,86.82
2017-11-19T22:13:20.425Z,86.85
2017-11-19T22:15:55.140Z,86.96
2017-11-19T22:18:29.961Z,87.22
2017-11-19T22:21:05.151Z,87.46
2017-11-19T22:23:40.037Z,94.58
2017-11-19T22:26:15.169Z,88.68
2017-11-19T22:28:50.046Z,84.95
2017-11-19T22:31:25.100Z,84.62
2017-11-19T22:34:00.096Z,85.42
2017-11-19T22:36:34.881Z,86.12
2017-11-19T22:39:09.885Z,86.69
2017-11-19T22:41:45.018Z,87.39
2017-11-19T22:44:19.945Z,87.83
2017-11-19T22:46:54.910Z,88.07
2017-11-19T22:49:29.828Z,88.19
2017-11-19T22:52:04.268Z,88.15
2017-11-19T22:54:39.349Z,88.35
2017-11-19T22:57:14.209Z,88.55
2017-11-19T22:59:49.058Z,88.62
2017-11-19T23:02:24.169Z,88.63
2017-11-19T23:04:59.012Z,88.90
2017-11-19T23:07:34.037Z,88.96
2017-11-19T23:10:08.925Z,88.91
2017-11-19T23:12:43.600Z,88.87
2017-11-19T23:15:18.529Z,88.83
2017-11-19T23:17:53.213Z,88.88
2017-11-19T23:20:27.904Z,89.13
2017-11-19T23:23:02.694Z,89.22
2017-11-19T23:25:37.584Z,89.21
2017-11-19T23:28:12.440Z,89.14
2017-11-19T23:30:47.077Z,88.94
2017-11-19T23:33:22.277Z,88.79
2017-11-19T23:35:57.100Z,88.89
2017-11-19T23:38:31.980Z,88.94
2017-11-19T23:41:06.756Z,88.89
2017-11-19T23:43:41.736Z,89.09
2017-11-19T23:46:16.588Z,89.43
2017-11-19T23:48:51.345Z,89.57
2017-11-19T23:51:26.474Z,89.79
2017-11-19T23:54:01.697Z,89.62
2017-11-19T23:56:36.572Z,89.61
2017-11-19T23:59:11.458Z,89.69
